createdAt,value
2022-10-05T00:01:48.463Z,36.50
2022-10-05T00:04:19.918Z,34.20
2022-10-05T00:06:52.695Z,34.00
2022-10-05T00:09:23.563Z,34.90
2022-10-05T00:11:54.790Z,36.30
2022-10-05T00:14:28.711Z,31.80
2022-10-05T00:16:59.690Z,42.20
2022-10-05T00:19:32.430Z,38.10
2022-10-05T00:22:07.558Z,33.10
2022-10-05T00:24:38.373Z,40.80
2022-10-05T00:27:15.581Z,39.70
2022-10-05T00:29:46.402Z,30.80
2022-10-05T00:32:17.156Z,32.60
2022-10-05T00:34:48.219Z,33.30
2022-10-05T00:37:18.969Z,30.00
2022-10-05T00:39:50.450Z,29.30
2022-10-05T00:42:30.774Z,28.30
2022-10-05T00:45:03.799Z,29.00
2022-10-05T00:47:46.131Z,31.20
2022-10-05T00:50:27.928Z,26.90
2022-10-05T00:53:02.944Z,29.10
2022-10-05T00:55:39.950Z,27.90
2022-10-05T00:58:14.485Z,27.60
2022-10-05T01:00:47.805Z,30.80
2022-10-05T01:05:55.775Z,27.10
2022-10-05T01:08:31.054Z,28.30
2022-10-05T01:11:05.242Z,23.60
2022-10-05T01:13:40.366Z,27.70
2022-10-05T01:16:13.266Z,24.80
2022-10-05T01:18:47.705Z,28.50
2022-10-05T01:21:19.891Z,24.40
2022-10-05T01:24:01.607Z,18.20
2022-10-05T01:26:48.748Z,24.30
2022-10-05T01:29:22.232Z,26.10
2022-10-05T01:31:58.311Z,22.90
2022-10-05T01:34:35.993Z,26.00
2022-10-05T01:37:12.217Z,21.10
2022-10-05T01:39:47.348Z,22.90
2022-10-05T01:42:23.293Z,18.80
2022-10-05T01:44:56.506Z,20.60
2022-10-05T01:47:30.314Z,19.60
2022-10-05T01:50:03.145Z,16.70
2022-10-05T01:52:38.741Z,19.30
2022-10-05T01:55:13.872Z,19.50
2022-10-05T01:57:51.166Z,22.00
2022-10-05T02:00:22.243Z,20.10
2022-10-05T02:02:58.262Z,23.00
2022-10-05T02:05:31.502Z,22.50
2022-10-05T02:08:03.114Z,16.60
2022-10-05T02:10:36.533Z,17.00
2022-10-05T02:13:11.114Z,18.30
2022-10-05T02:15:44.111Z,19.70
2022-10-05T02:18:19.618Z,18.70
2022-10-05T02:20:51.219Z,20.00
2022-10-05T02:23:23.207Z,18.60
2022-10-05T02:25:55.631Z,21.00
2022-10-05T02:28:28.367Z,28.80
2022-10-05T02:31:02.091Z,33.20
2022-10-05T02:33:35.142Z,28.30
2022-10-05T02:36:13.098Z,33.40
2022-10-05T02:38:52.111Z,28.40
2022-10-05T02:41:28.055Z,31.50
2022-10-05T02:44:03.401Z,29.00
2022-10-05T02:46:36.790Z,30.60
2022-10-05T02:49:14.529Z,30.50
2022-10-05T02:51:48.382Z,29.30
2022-10-05T02:54:24.021Z,32.90
2022-10-05T02:56:57.721Z,32.00
2022-10-05T02:59:32.418Z,38.10
2022-10-05T03:02:09.747Z,32.50
2022-10-05T03:04:42.094Z,32.40
2022-10-05T03:07:16.816Z,31.00
2022-10-05T03:09:50.758Z,35.10
2022-10-05T03:12:29.754Z,35.30
2022-10-05T03:15:04.182Z,25.80
2022-10-05T03:17:38.411Z,28.30
2022-10-05T03:20:14.586Z,30.60
2022-10-05T03:22:48.816Z,33.10
2022-10-05T03:25:29.003Z,34.00
2022-10-05T03:28:02.866Z,29.50
2022-10-05T03:30:35.671Z,36.10
2022-10-05T03:33:11.979Z,30.70
2022-10-05T03:35:48.135Z,27.90
2022-10-05T03:38:24.021Z,28.20
2022-10-05T03:40:58.765Z,25.20
2022-10-05T03:43:44.687Z,32.40
2022-10-05T03:46:17.918Z,29.50
2022-10-05T03:48:52.818Z,26.40
2022-10-05T03:51:25.905Z,30.00
2022-10-05T03:54:01.691Z,28.20
2022-10-05T03:56:34.466Z,41.60
2022-10-05T03:59:09.404Z,32.70
2022-10-05T04:01:44.865Z,30.30
2022-10-05T04:04:21.577Z,36.10
2022-10-05T04:06:53.600Z,28.80
2022-10-05T04:09:25.715Z,32.20
2022-10-05T04:11:59.470Z,29.00
2022-10-05T04:14:33.555Z,30.90
2022-10-05T04:17:08.184Z,37.40
2022-10-05T04:19:41.683Z,33.10
2022-10-05T04:22:13.694Z,29.90
2022-10-05T04:24:47.254Z,32.10
2022-10-05T04:27:19.200Z,28.20
2022-10-05T04:29:55.087Z,26.90
2022-10-05T04:32:37.072Z,33.40
2022-10-05T04:35:18.243Z,30.60
2022-10-05T04:37:54.274Z,29.80
2022-10-05T04:40:33.076Z,27.50
2022-10-05T04:43:07.293Z,29.30
2022-10-05T04:45:45.011Z,22.50
2022-10-05T04:48:26.702Z,21.30
2022-10-05T04:51:03.771Z,18.40
2022-10-05T04:53:37.240Z,19.60
2022-10-05T04:56:10.760Z,17.20
2022-10-05T04:58:57.908Z,21.10
2022-10-05T05:01:42.268Z,18.00
2022-10-05T05:04:23.369Z,17.60
2022-10-05T05:07:00.189Z,21.30
2022-10-05T05:09:53.544Z,20.60
2022-10-05T05:12:30.010Z,19.60
2022-10-05T05:15:08.491Z,19.00
2022-10-05T05:17:48.498Z,19.20
2022-10-05T05:20:23.473Z,16.40
2022-10-05T05:22:58.950Z,15.80
2022-10-05T05:25:36.222Z,16.30
2022-10-05T05:28:14.713Z,17.90
2022-10-05T05:30:49.602Z,19.30
2022-10-05T05:33:23.217Z,22.50
2022-10-05T05:36:22.210Z,22.80
2022-10-05T05:38:59.885Z,27.50
2022-10-05T05:41:36.875Z,30.10
2022-10-05T05:44:11.716Z,35.20
2022-10-05T05:47:02.848Z,29.30
2022-10-05T05:49:43.259Z,27.70
2022-10-05T05:52:17.352Z,28.10
2022-10-05T05:54:51.546Z,33.70
2022-10-05T05:59:57.817Z,30.80
2022-10-05T06:02:30.521Z,37.20
2022-10-05T06:05:04.205Z,31.70
2022-10-05T06:07:38.251Z,28.50
2022-10-05T06:10:25.073Z,28.40
2022-10-05T06:13:07.779Z,23.10
2022-10-05T06:15:42.161Z,23.70
2022-10-05T06:18:15.211Z,23.80
2022-10-05T06:20:50.527Z,22.90
2022-10-05T06:23:23.634Z,31.70
2022-10-05T06:26:09.756Z,19.40
2022-10-05T06:28:42.641Z,20.30
2022-10-05T06:31:20.903Z,25.60
2022-10-05T06:33:56.181Z,25.70
2022-10-05T06:36:39.610Z,31.10
2022-10-05T06:39:18.057Z,29.10
2022-10-05T06:41:55.696Z,29.60
2022-10-05T06:44:50.819Z,23.90
2022-10-05T06:47:37.498Z,31.80
2022-10-05T06:50:36.628Z,28.90
2022-10-05T06:53:30.388Z,46.10
2022-10-05T06:56:04.272Z,27.90
2022-10-05T06:58:52.218Z,26.80
2022-10-05T07:01:27.875Z,24.80
2022-10-05T07:04:10.491Z,20.80
2022-10-05T07:06:44.883Z,21.80
2022-10-05T07:09:22.435Z,20.60
2022-10-05T07:12:13.198Z,20.80
2022-10-05T07:14:58.459Z,22.10
2022-10-05T07:17:37.793Z,17.70
2022-10-05T07:20:15.194Z,18.20
2022-10-05T07:22:54.828Z,13.30
2022-10-05T07:25:30.024Z,16.70
2022-10-05T07:28:04.650Z,18.60
2022-10-05T07:30:39.825Z,16.00
2022-10-05T07:33:14.518Z,15.40
2022-10-05T07:36:07.096Z,13.90
2022-10-05T07:38:40.736Z,18.80
2022-10-05T07:41:15.783Z,14.00
2022-10-05T07:44:02.026Z,16.10
2022-10-05T07:46:42.858Z,14.70
2022-10-05T07:49:19.751Z,14.50
2022-10-05T07:51:52.372Z,14.40
2022-10-05T07:54:25.978Z,11.70
2022-10-05T07:57:01.636Z,11.10
2022-10-05T07:59:36.117Z,13.10
2022-10-05T08:02:13.732Z,17.60
2022-10-05T08:04:52.937Z,14.00
2022-10-05T08:10:04.807Z,12.70
2022-10-05T08:12:40.705Z,12.20
2022-10-05T08:15:15.843Z,15.30
2022-10-05T08:17:50.195Z,11.80
2022-10-05T08:20:36.858Z,13.90
2022-10-05T08:23:13.387Z,12.50
2022-10-05T08:25:47.395Z,9.50
2022-10-05T08:28:20.416Z,11.10
2022-10-05T08:31:07.413Z,13.50
2022-10-05T08:33:43.534Z,10.70
2022-10-05T08:36:15.812Z,11.60
2022-10-05T08:38:46.749Z,14.00
2022-10-05T08:41:29.970Z,12.00
2022-10-05T08:44:14.143Z,11.80
2022-10-05T08:46:58.458Z,9.40
2022-10-05T08:49:48.173Z,10.70
2022-10-05T08:52:30.322Z,13.20
2022-10-05T08:55:18.366Z,14.90
2022-10-05T08:58:03.642Z,13.10
2022-10-05T09:00:40.593Z,9.40
2022-10-05T09:03:25.273Z,9.20
2022-10-05T09:06:14.589Z,8.50
2022-10-05T09:08:49.298Z,8.10
2022-10-05T09:11:22.182Z,11.30
2022-10-05T09:14:09.595Z,10.40
2022-10-05T09:16:44.812Z,10.70
2022-10-05T09:19:29.893Z,8.40
2022-10-05T09:22:05.168Z,6.20
2022-10-05T09:24:48.477Z,8.60
2022-10-05T09:27:19.774Z,6.60
2022-10-05T09:30:09.988Z,8.20
2022-10-05T09:32:50.446Z,6.20
2022-10-05T09:35:30.448Z,7.70
2022-10-05T09:38:15.473Z,8.60
2022-10-05T09:41:02.274Z,7.80
2022-10-05T09:43:46.629Z,6.70
2022-10-05T09:46:32.108Z,7.70
2022-10-05T09:49:17.819Z,12.00
2022-10-05T09:52:13.919Z,7.70
2022-10-05T09:55:11.920Z,7.50
2022-10-05T09:57:54.145Z,9.90
2022-10-05T10:00:41.102Z,8.80
2022-10-05T10:03:28.276Z,6.00
2022-10-05T10:06:06.575Z,6.70
2022-10-05T10:08:43.095Z,7.30
2022-10-05T10:11:30.218Z,11.80
2022-10-05T10:14:11.530Z,7.00
2022-10-05T10:16:53.906Z,6.00
2022-10-05T10:19:42.437Z,11.00
2022-10-05T10:22:29.154Z,8.10
2022-10-05T10:25:04.625Z,9.20
2022-10-05T10:27:45.583Z,7.90
2022-10-05T10:30:44.222Z,7.40
2022-10-05T10:33:44.000Z,8.60
2022-10-05T10:36:17.604Z,11.50
2022-10-05T10:38:55.621Z,7.50
2022-10-05T10:41:34.721Z,8.20
2022-10-05T10:44:18.868Z,6.80
2022-10-05T10:46:54.922Z,7.50
2022-10-05T10:49:37.844Z,9.40
2022-10-05T10:52:25.084Z,7.40
2022-10-05T10:55:11.182Z,7.90
2022-10-05T10:57:50.708Z,7.50
2022-10-05T11:00:25.528Z,5.70
2022-10-05T11:03:03.038Z,6.00
2022-10-05T11:05:39.910Z,9.00
2022-10-05T11:08:22.115Z,7.30
2022-10-05T11:11:08.283Z,7.20
2022-10-05T11:13:48.427Z,5.40
2022-10-05T11:16:32.366Z,7.70
2022-10-05T11:19:08.975Z,10.90
2022-10-05T11:21:45.798Z,6.90
2022-10-05T11:24:30.182Z,6.70
2022-10-05T11:27:09.485Z,7.20
2022-10-05T11:29:49.511Z,5.80
2022-10-05T11:32:29.647Z,7.00
2022-10-05T11:35:13.561Z,7.40
2022-10-05T11:37:58.298Z,7.00
2022-10-05T11:40:45.466Z,9.90
2022-10-05T11:43:40.493Z,8.20
2022-10-05T11:46:14.972Z,7.00
2022-10-05T11:48:52.087Z,9.60
2022-10-05T11:51:35.575Z,7.00
2022-10-05T11:54:22.798Z,8.90
2022-10-05T11:56:57.946Z,7.40
2022-10-05T11:59:31.544Z,7.40
2022-10-05T12:02:06.378Z,6.80
2022-10-05T12:04:42.933Z,8.50
2022-10-05T12:07:18.005Z,7.70
2022-10-05T12:10:11.371Z,5.90
2022-10-05T12:12:45.693Z,7.40
2022-10-05T12:15:20.243Z,7.10
2022-10-05T12:20:26.738Z,7.50
2022-10-05T12:23:00.391Z,6.90
2022-10-05T12:25:33.037Z,7.80
2022-10-05T12:28:07.420Z,8.30
2022-10-05T12:30:52.722Z,7.00
2022-10-05T12:33:25.720Z,8.70
2022-10-05T12:35:58.778Z,8.40
2022-10-05T12:38:31.796Z,7.00
2022-10-05T12:41:08.898Z,7.00
2022-10-05T12:43:44.888Z,7.80
2022-10-05T12:46:23.523Z,8.00
2022-10-05T12:49:01.961Z,8.80
2022-10-05T12:51:37.202Z,6.40
2022-10-05T12:54:13.569Z,5.60
2022-10-05T12:56:47.558Z,5.90
2022-10-05T12:59:24.416Z,6.70
2022-10-05T13:01:59.214Z,6.90
2022-10-05T13:04:34.668Z,7.90
2022-10-05T13:07:12.318Z,5.20
2022-10-05T13:09:49.599Z,5.80
2022-10-05T13:12:24.163Z,5.50
2022-10-05T13:15:00.797Z,7.00
2022-10-05T13:17:36.928Z,6.40
2022-10-05T13:20:14.246Z,5.20
2022-10-05T13:22:47.856Z,5.30
2022-10-05T13:25:22.374Z,5.70
2022-10-05T13:27:57.178Z,5.20
2022-10-05T13:30:28.155Z,5.40
2022-10-05T13:32:59.718Z,7.00
2022-10-05T13:35:36.159Z,6.40
2022-10-05T13:38:09.160Z,6.40
2022-10-05T13:43:15.096Z,5.50
2022-10-05T13:45:48.063Z,5.00
2022-10-05T13:48:24.884Z,5.10
2022-10-05T13:51:01.797Z,7.20
2022-10-05T13:53:38.344Z,5.00
2022-10-05T13:56:15.329Z,6.10
2022-10-05T13:58:47.828Z,6.70
2022-10-05T14:01:22.600Z,5.40
2022-10-05T14:04:07.479Z,8.20
2022-10-05T14:06:40.225Z,7.20
2022-10-05T14:09:13.886Z,7.00
2022-10-05T14:11:51.048Z,6.80
2022-10-05T14:14:28.422Z,5.80
2022-10-05T14:17:00.354Z,7.40
2022-10-05T14:19:33.838Z,5.30
2022-10-05T14:22:11.772Z,6.50
2022-10-05T14:24:49.480Z,5.00
2022-10-05T14:27:22.165Z,6.90
2022-10-05T14:29:59.831Z,6.00
2022-10-05T14:32:33.707Z,5.30
2022-10-05T14:35:15.567Z,5.10
2022-10-05T14:37:50.435Z,6.30
2022-10-05T14:40:25.634Z,8.40
2022-10-05T14:42:56.286Z,5.40
2022-10-05T14:45:30.000Z,9.20
2022-10-05T14:48:12.403Z,8.20
2022-10-05T14:50:56.678Z,6.60
2022-10-05T14:53:28.369Z,6.70
2022-10-05T14:56:03.302Z,6.40
2022-10-05T14:58:39.409Z,7.70
2022-10-05T15:01:14.902Z,7.90
2022-10-05T15:03:52.323Z,6.40
2022-10-05T15:06:28.195Z,9.40
2022-10-05T15:09:19.871Z,6.10
2022-10-05T15:11:53.555Z,9.50
2022-10-05T15:14:26.072Z,8.70
2022-10-05T15:16:59.458Z,8.70
2022-10-05T15:19:36.359Z,7.00
2022-10-05T15:22:23.967Z,11.40
2022-10-05T15:24:58.698Z,8.30
2022-10-05T15:27:45.325Z,7.70
2022-10-05T15:30:18.696Z,11.00
2022-10-05T15:33:04.574Z,7.20
2022-10-05T15:35:48.523Z,9.40
2022-10-05T15:38:22.113Z,7.80
2022-10-05T15:40:59.434Z,8.20
2022-10-05T15:43:36.047Z,9.20
2022-10-05T15:46:11.771Z,8.70
2022-10-05T15:48:48.476Z,10.00
2022-10-05T15:51:24.145Z,13.70
2022-10-05T15:54:16.888Z,10.70
2022-10-05T15:56:54.242Z,8.60
2022-10-05T15:59:28.878Z,10.20
2022-10-05T16:02:01.995Z,12.10
2022-10-05T16:04:40.192Z,9.10
2022-10-05T16:07:31.924Z,10.70
2022-10-05T16:10:04.956Z,6.90
2022-10-05T16:12:39.678Z,9.60
2022-10-05T16:15:16.906Z,12.80
2022-10-05T16:17:55.405Z,13.70
2022-10-05T16:20:30.343Z,11.40
2022-10-05T16:23:04.316Z,7.50
2022-10-05T16:25:43.151Z,9.20
2022-10-05T16:28:20.455Z,13.00
2022-10-05T16:30:58.800Z,9.80
2022-10-05T16:33:34.584Z,13.70
2022-10-05T16:36:25.578Z,11.10
2022-10-05T16:38:59.673Z,8.90
2022-10-05T16:41:34.984Z,7.90
2022-10-05T16:44:11.387Z,7.50
2022-10-05T16:46:51.331Z,9.50
2022-10-05T16:49:29.296Z,12.80
2022-10-05T16:52:00.532Z,12.00
2022-10-05T16:54:33.263Z,11.50
2022-10-05T16:57:29.098Z,13.40
2022-10-05T17:00:10.861Z,12.10
2022-10-05T17:02:50.375Z,7.80
2022-10-05T17:05:27.486Z,6.50
2022-10-05T17:08:09.883Z,10.00
2022-10-05T17:10:49.908Z,7.60
2022-10-05T17:13:36.838Z,7.10
2022-10-05T17:16:11.584Z,11.40
2022-10-05T17:19:04.804Z,9.70
2022-10-05T17:21:38.838Z,7.70
2022-10-05T17:24:20.541Z,8.50
2022-10-05T17:26:59.623Z,9.10
2022-10-05T17:29:32.179Z,11.00
2022-10-05T17:32:19.387Z,8.50
2022-10-05T17:35:04.344Z,8.30
2022-10-05T17:37:37.116Z,9.80
2022-10-05T17:40:28.445Z,16.80
2022-10-05T17:43:04.704Z,27.00
2022-10-05T17:45:57.682Z,14.40
2022-10-05T17:48:42.617Z,16.30
2022-10-05T17:51:35.525Z,11.20
2022-10-05T17:54:37.792Z,12.00
2022-10-05T17:57:19.712Z,10.90
2022-10-05T17:59:57.881Z,10.80
2022-10-05T18:02:42.877Z,12.10
2022-10-05T18:05:27.908Z,10.70
2022-10-05T18:08:17.860Z,12.60
2022-10-05T18:11:13.211Z,12.20
2022-10-05T18:13:48.287Z,9.80
2022-10-05T18:16:32.244Z,13.50
2022-10-05T18:19:17.802Z,13.20
2022-10-05T18:22:03.334Z,12.70
2022-10-05T18:25:08.284Z,11.50
2022-10-05T18:27:55.755Z,12.30
2022-10-05T18:30:27.538Z,17.80
2022-10-05T18:33:24.394Z,10.20
2022-10-05T18:36:09.555Z,11.60
2022-10-05T18:38:45.941Z,22.40
2022-10-05T18:41:22.639Z,11.80
2022-10-05T18:44:01.245Z,13.30
2022-10-05T18:46:40.094Z,14.70
2022-10-05T18:49:17.902Z,15.80
2022-10-05T18:51:53.155Z,16.50
2022-10-05T18:54:39.276Z,18.70
2022-10-05T18:57:27.569Z,16.30
2022-10-05T19:00:02.151Z,13.00
2022-10-05T19:02:35.716Z,13.50
2022-10-05T19:05:42.655Z,13.10
2022-10-05T19:08:18.467Z,14.80
2022-10-05T19:10:57.278Z,14.50
2022-10-05T19:13:37.996Z,12.10
2022-10-05T19:16:17.942Z,16.30
2022-10-05T19:18:51.897Z,16.50
2022-10-05T19:21:28.746Z,15.50
2022-10-05T19:24:06.352Z,13.10
2022-10-05T19:26:47.160Z,11.20
2022-10-05T19:29:31.443Z,11.50
2022-10-05T19:32:04.324Z,12.50
2022-10-05T19:34:40.991Z,16.00
2022-10-05T19:37:15.384Z,14.90
2022-10-05T19:39:48.463Z,12.30
2022-10-05T19:42:35.429Z,18.00
2022-10-05T19:45:13.234Z,13.50
2022-10-05T19:47:47.695Z,18.10
2022-10-05T19:50:30.829Z,14.00
2022-10-05T19:53:08.492Z,21.60
2022-10-05T19:55:41.724Z,15.00
2022-10-05T19:58:26.029Z,24.50
2022-10-05T20:00:58.229Z,15.20
2022-10-05T20:03:29.824Z,14.10
2022-10-05T20:06:01.837Z,12.20
2022-10-05T20:08:40.090Z,13.60
2022-10-05T20:11:16.166Z,13.30
2022-10-05T20:13:47.703Z,14.60
2022-10-05T20:16:45.521Z,15.30
2022-10-05T20:19:46.853Z,17.80
2022-10-05T20:22:50.897Z,12.70
2022-10-05T20:25:33.548Z,13.20
2022-10-05T20:28:09.072Z,15.70
2022-10-05T20:30:48.933Z,15.20
2022-10-05T20:33:26.496Z,12.10
2022-10-05T20:36:03.853Z,13.70
2022-10-05T20:38:44.175Z,13.40
2022-10-05T20:41:16.705Z,13.40
2022-10-05T20:43:47.423Z,17.60
2022-10-05T20:46:23.171Z,18.90
2022-10-05T20:48:58.285Z,18.90
2022-10-05T20:51:33.184Z,19.10
2022-10-05T20:54:09.274Z,18.80
2022-10-05T20:56:45.783Z,15.20
2022-10-05T20:59:16.784Z,18.30
2022-10-05T21:01:52.683Z,14.60
2022-10-05T21:04:40.293Z,12.30
2022-10-05T21:07:11.763Z,15.50
2022-10-05T21:09:44.049Z,13.40
2022-10-05T21:12:16.485Z,17.90
2022-10-05T21:14:47.756Z,21.80
2022-10-05T21:17:20.435Z,21.80
2022-10-05T21:19:52.957Z,23.70
2022-10-05T21:22:23.834Z,23.20
2022-10-05T21:24:55.418Z,21.90
2022-10-05T21:27:25.793Z,24.00
2022-10-05T21:29:56.578Z,30.80
2022-10-05T21:32:27.417Z,27.70
2022-10-05T21:34:58.715Z,31.60
2022-10-05T21:37:29.139Z,28.60
2022-10-05T21:39:59.935Z,29.00
2022-10-05T21:42:30.809Z,22.40
2022-10-05T21:45:01.867Z,30.80
2022-10-05T21:47:32.603Z,24.70
2022-10-05T21:50:05.538Z,32.20
2022-10-05T21:52:36.831Z,28.70
2022-10-05T21:55:08.607Z,23.40
2022-10-05T21:57:40.901Z,31.40
2022-10-05T22:00:14.271Z,23.60
2022-10-05T22:02:44.618Z,23.90
2022-10-05T22:05:15.656Z,23.80
2022-10-05T22:07:46.350Z,18.80
2022-10-05T22:10:17.026Z,23.30
2022-10-05T22:12:47.956Z,21.00
2022-10-05T22:15:18.963Z,15.80
2022-10-05T22:17:49.585Z,16.50
2022-10-05T22:20:21.994Z,18.00
2022-10-05T22:22:53.102Z,20.80
2022-10-05T22:25:24.290Z,18.90
2022-10-05T22:27:55.179Z,19.70
2022-10-05T22:30:26.058Z,17.40
2022-10-05T22:32:56.957Z,18.20
2022-10-05T22:35:27.800Z,20.80
2022-10-05T22:37:58.453Z,20.90
2022-10-05T22:40:29.572Z,15.40
2022-10-05T22:42:59.889Z,18.90
2022-10-05T22:45:32.728Z,20.40
2022-10-05T22:48:04.122Z,16.60
2022-10-05T22:50:35.181Z,13.70
2022-10-05T22:53:05.687Z,14.00
2022-10-05T22:55:36.476Z,17.00
2022-10-05T22:58:07.139Z,14.20
2022-10-05T23:00:57.477Z,16.20
2022-10-05T23:03:28.599Z,21.40
2022-10-05T23:06:00.710Z,18.90
2022-10-05T23:08:32.495Z,16.40
2022-10-05T23:11:04.733Z,15.80
2022-10-05T23:13:35.106Z,17.10
2022-10-05T23:16:10.002Z,15.60
2022-10-05T23:18:40.648Z,20.00
2022-10-05T23:21:12.059Z,16.40
2022-10-05T23:23:43.404Z,17.00
2022-10-05T23:26:14.712Z,16.90
2022-10-05T23:28:47.234Z,16.00
2022-10-05T23:31:19.857Z,15.80
2022-10-05T23:33:50.934Z,20.20
2022-10-05T23:36:23.080Z,14.20
2022-10-05T23:38:53.497Z,18.20
2022-10-05T23:41:25.202Z,15.30
2022-10-05T23:43:56.051Z,16.30
2022-10-05T23:46:27.187Z,15.90
2022-10-05T23:48:57.657Z,16.40
2022-10-05T23:51:28.621Z,16.20
2022-10-05T23:53:58.905Z,16.40
2022-10-05T23:56:29.963Z,15.60
2022-10-05T23:59:00.243Z,15.30
